createdAt,value
2018-09-28T00:00:12.513Z,100598.95
2018-09-28T00:02:41.539Z,100589.39
2018-09-28T00:05:10.696Z,100593.37
2018-09-28T00:07:39.824Z,100590.36
2018-09-28T00:10:08.942Z,100589.91
2018-09-28T00:12:38.040Z,100583.35
2018-09-28T00:15:07.468Z,100586.02
2018-09-28T00:17:36.511Z,100573.78
2018-09-28T00:20:05.906Z,100566.47
2018-09-28T00:22:35.080Z,100572.66
2018-09-28T00:25:04.392Z,100575.02
2018-09-28T00:27:33.385Z,100571.98
2018-09-28T00:30:02.639Z,100568.05
2018-09-28T00:32:31.633Z,100567.33
2018-09-28T00:35:00.664Z,100559.48
2018-09-28T00:37:29.565Z,100561.66
2018-09-28T00:39:58.797Z,100555.10
2018-09-28T00:42:27.819Z,100553.00
2018-09-28T00:44:57.202Z,100549.14
2018-09-28T00:47:26.313Z,100551.39
2018-09-28T00:56:40.021Z,100530.37
2018-09-28T00:59:08.937Z,100529.95
2018-09-28T01:01:37.888Z,100528.98
2018-09-28T01:04:07.560Z,100525.16
2018-09-28T01:06:36.580Z,100528.68
2018-09-28T01:09:09.209Z,100532.41
2018-09-28T01:11:38.197Z,100528.05
2018-09-28T01:14:07.419Z,100533.38
2018-09-28T01:16:36.755Z,100529.33
2018-09-28T01:19:06.505Z,100534.66
2018-09-28T01:21:35.631Z,100527.38
2018-09-28T01:24:04.898Z,100520.47
2018-09-28T01:26:34.064Z,100532.41
2018-09-28T01:29:03.028Z,100530.34
2018-09-28T01:31:32.444Z,100541.27
2018-09-28T01:34:01.453Z,100538.23
2018-09-28T01:36:30.534Z,100539.48
2018-09-28T01:39:00.176Z,100548.56
2018-09-28T01:41:29.034Z,100538.59
2018-09-28T01:43:58.061Z,100534.30
2018-09-28T01:46:27.309Z,100533.82
2018-09-28T01:48:56.336Z,100531.13
2018-09-28T01:51:25.431Z,100528.44
2018-09-28T01:53:54.760Z,100519.30
2018-09-28T01:56:23.952Z,100520.47
2018-09-28T01:58:52.914Z,100516.91
2018-09-28T02:01:22.152Z,100512.49
2018-09-28T02:03:51.302Z,100518.49
2018-09-28T02:06:20.240Z,100506.66
2018-09-28T02:08:49.936Z,100507.06
2018-09-28T02:11:18.962Z,100508.03
2018-09-28T02:13:47.891Z,100504.85
2018-09-28T02:16:16.746Z,100508.30
2018-09-28T02:18:45.697Z,100505.86
2018-09-28T02:21:14.867Z,100510.24
2018-09-28T02:23:44.425Z,100511.73
2018-09-28T02:26:13.442Z,100506.86
2018-09-28T02:28:42.543Z,100501.83
2018-09-28T02:31:11.998Z,100506.39
2018-09-28T02:33:41.123Z,100499.83
2018-09-28T02:36:10.096Z,100496.92
2018-09-28T02:38:39.174Z,100493.86
2018-09-28T02:41:08.418Z,100490.44
2018-09-28T02:43:37.406Z,100493.99
2018-09-28T02:46:06.909Z,100494.02
2018-09-28T02:48:35.916Z,100485.74
2018-09-28T02:51:05.104Z,100493.20
2018-09-28T02:53:34.117Z,100496.33
2018-09-28T02:56:03.377Z,100495.53
2018-09-28T02:58:32.342Z,100501.95
2018-09-28T03:01:01.712Z,100500.16
2018-09-28T03:03:30.735Z,100497.83
2018-09-28T03:05:59.734Z,100496.86
2018-09-28T03:08:29.092Z,100496.92
2018-09-28T03:10:58.133Z,100486.09
2018-09-28T03:13:27.229Z,100481.84
2018-09-28T03:15:56.410Z,100472.70
2018-09-28T03:18:25.308Z,100475.46
2018-09-28T03:20:54.320Z,100487.51
2018-09-28T03:23:23.518Z,100488.08
2018-09-28T03:25:52.867Z,100490.70
2018-09-28T03:28:21.964Z,100483.83
2018-09-28T03:30:51.567Z,100487.91
2018-09-28T03:33:20.573Z,100489.72
2018-09-28T03:35:49.947Z,100494.54
2018-09-28T03:38:19.296Z,100487.45
2018-09-28T03:40:48.248Z,100483.29
2018-09-28T03:43:17.770Z,100482.56
2018-09-28T03:45:46.994Z,100481.40
2018-09-28T03:48:16.074Z,100474.49
2018-09-28T03:50:45.047Z,100476.52
2018-09-28T03:53:14.280Z,100484.30
2018-09-28T03:55:43.537Z,100484.30
2018-09-28T03:58:13.471Z,100484.35
2018-09-28T04:00:42.472Z,100479.45
2018-09-28T04:03:11.423Z,100480.30
2018-09-28T04:05:40.557Z,100478.91
2018-09-28T04:08:10.201Z,100485.52
2018-09-28T04:10:39.266Z,100478.80
2018-09-28T04:13:08.226Z,100475.73
2018-09-28T04:15:37.515Z,100468.83
2018-09-28T04:18:06.431Z,100466.11
2018-09-28T04:20:35.755Z,100464.23
2018-09-28T04:23:05.195Z,100467.75
2018-09-28T04:25:34.324Z,100469.48
2018-09-28T04:28:03.853Z,100469.92
2018-09-28T04:30:33.277Z,100464.56
2018-09-28T04:33:02.125Z,100468.33
2018-09-28T04:35:31.184Z,100469.48
2018-09-28T04:38:00.511Z,100470.34
2018-09-28T04:40:29.709Z,100474.31
2018-09-28T04:42:58.768Z,100466.89
2018-09-28T04:45:28.107Z,100467.56
2018-09-28T04:47:57.157Z,100470.05
2018-09-28T04:50:26.381Z,100473.05
2018-09-28T04:52:55.584Z,100466.33
2018-09-28T04:55:24.681Z,100466.56
2018-09-28T04:57:57.879Z,100466.88
2018-09-28T05:00:27.095Z,100461.55
2018-09-28T05:02:56.105Z,100457.62
2018-09-28T05:05:25.462Z,100458.75
2018-09-28T05:07:54.423Z,100453.87
2018-09-28T05:10:23.350Z,100463.84
2018-09-28T05:12:52.786Z,100454.59
2018-09-28T05:15:21.642Z,100461.86
2018-09-28T05:17:50.513Z,100460.43
2018-09-28T05:20:19.494Z,100457.69
2018-09-28T05:22:48.330Z,100461.39
2018-09-28T05:25:17.078Z,100457.37
2018-09-28T05:27:46.115Z,100464.23
2018-09-28T05:30:14.951Z,100470.66
2018-09-28T05:32:43.981Z,100466.53
2018-09-28T05:35:12.929Z,100471.57
2018-09-28T05:37:43.934Z,100469.63
2018-09-28T05:40:12.758Z,100467.61
2018-09-28T05:42:41.982Z,100463.49
2018-09-28T05:45:11.269Z,100467.21
2018-09-28T05:47:41.557Z,100454.80
2018-09-28T05:50:10.974Z,100462.55
2018-09-28T05:52:40.159Z,100456.97
2018-09-28T05:55:09.089Z,100453.97
2018-09-28T05:57:38.047Z,100453.27
2018-09-28T06:00:12.083Z,100454.89
2018-09-28T06:02:46.482Z,100459.59
2018-09-28T06:05:20.699Z,100460.27
2018-09-28T06:07:49.867Z,100457.41
2018-09-28T06:10:18.961Z,100463.24
2018-09-28T06:12:47.841Z,100461.36
2018-09-28T06:15:17.137Z,100468.14
2018-09-28T06:17:46.382Z,100467.03
2018-09-28T06:20:15.426Z,100464.48
2018-09-28T06:22:45.163Z,100468.86
2018-09-28T06:25:14.152Z,100468.48
2018-09-28T06:27:43.112Z,100460.80
2018-09-28T06:30:12.478Z,100457.95
2018-09-28T06:32:41.333Z,100455.50
2018-09-28T06:35:10.273Z,100458.30
2018-09-28T06:37:39.423Z,100461.95
2018-09-28T06:40:08.483Z,100460.80
2018-09-28T06:42:37.376Z,100451.41
2018-09-28T06:45:06.999Z,100450.81
2018-09-28T06:47:35.844Z,100454.09
2018-09-28T06:50:04.840Z,100450.55
2018-09-28T06:52:34.266Z,100449.74
2018-09-28T06:55:03.541Z,100448.05
2018-09-28T06:57:32.430Z,100446.35
2018-09-28T07:00:01.395Z,100439.98
2018-09-28T07:02:30.192Z,100439.98
2018-09-28T07:04:59.053Z,100431.16
2018-09-28T07:07:28.454Z,100426.45
2018-09-28T07:09:57.365Z,100430.81
2018-09-28T07:12:26.344Z,100428.62
2018-09-28T07:14:56.508Z,100419.55
2018-09-28T07:17:25.456Z,100417.94
2018-09-28T07:19:54.459Z,100425.56
2018-09-28T07:22:23.364Z,100416.48
2018-09-28T07:24:52.377Z,100412.88
2018-09-28T07:27:21.391Z,100418.58
2018-09-28T07:29:50.754Z,100409.73
2018-09-28T07:32:19.835Z,100411.07
2018-09-28T07:34:54.480Z,100413.19
2018-09-28T07:37:23.483Z,100399.28
2018-09-28T07:39:52.321Z,100395.38
2018-09-28T07:42:21.597Z,100388.06
2018-09-28T07:44:50.558Z,100384.34
2018-09-28T07:47:19.335Z,100377.77
2018-09-28T07:49:49.123Z,100369.37
2018-09-28T07:52:18.698Z,100366.65
2018-09-28T07:54:47.985Z,100364.35
2018-09-28T07:57:17.451Z,100364.42
2018-09-28T07:59:46.916Z,100368.85
2018-09-28T08:02:15.836Z,100366.13
2018-09-28T08:04:45.800Z,100358.33
2018-09-28T08:07:15.076Z,100356.77
2018-09-28T08:09:44.105Z,100353.04
2018-09-28T08:12:13.450Z,100353.72
2018-09-28T08:14:42.448Z,100349.83
2018-09-28T08:17:11.524Z,100345.30
2018-09-28T08:19:40.819Z,100341.10
2018-09-28T08:22:09.817Z,100346.71
2018-09-28T08:24:38.849Z,100333.77
2018-09-28T08:27:08.383Z,100340.61
2018-09-28T08:29:37.533Z,100335.47
2018-09-28T08:32:06.706Z,100330.06
2018-09-28T08:34:36.254Z,100327.11
2018-09-28T08:37:05.314Z,100325.81
2018-09-28T08:39:34.466Z,100324.99
2018-09-28T08:42:03.954Z,100326.19
2018-09-28T08:44:32.990Z,100320.25
2018-09-28T08:47:02.091Z,100309.52
2018-09-28T08:49:31.657Z,100298.92
2018-09-28T08:52:00.670Z,100300.38
2018-09-28T08:54:29.752Z,100299.75
2018-09-28T08:56:59.301Z,100290.96
2018-09-28T08:59:28.410Z,100278.89
2018-09-28T09:01:57.506Z,100268.73
2018-09-28T09:04:27.007Z,100263.42
2018-09-28T09:06:56.065Z,100257.33
2018-09-28T09:09:25.167Z,100269.28
2018-09-28T09:11:54.303Z,100255.59
2018-09-28T09:14:23.401Z,100255.24
2018-09-28T09:16:52.792Z,100254.32
2018-09-28T09:19:22.358Z,100243.06
2018-09-28T09:21:51.637Z,100241.31
2018-09-28T09:24:20.860Z,100235.12
2018-09-28T09:26:50.193Z,100232.63
2018-09-28T09:29:19.494Z,100220.20
2018-09-28T09:31:48.953Z,100223.98
2018-09-28T09:34:18.267Z,100215.97
2018-09-28T09:36:47.611Z,100215.14
2018-09-28T09:39:16.949Z,100210.92
2018-09-28T09:41:46.479Z,100205.73
2018-09-28T09:44:15.556Z,100203.50
2018-09-28T09:46:45.190Z,100199.30
2018-09-28T09:49:14.779Z,100201.35
2018-09-28T09:51:43.986Z,100196.14
2018-09-28T09:54:13.232Z,100184.70
2018-09-28T09:56:42.650Z,100182.64
2018-09-28T09:59:11.977Z,100174.25
2018-09-28T10:01:46.256Z,100170.09
2018-09-28T10:04:15.575Z,100168.68
2018-09-28T10:06:44.905Z,100164.99
2018-09-28T10:09:15.320Z,100156.15
2018-09-28T10:11:44.499Z,100154.69
2018-09-28T10:14:13.777Z,100144.27
2018-09-28T10:16:42.975Z,100142.44
2018-09-28T10:19:12.123Z,100131.32
2018-09-28T10:21:41.242Z,100136.19
2018-09-28T10:24:10.399Z,100125.55
2018-09-28T10:26:39.522Z,100125.79
2018-09-28T10:29:08.651Z,100120.69
2018-09-28T10:31:38.177Z,100114.55
2018-09-28T10:34:07.425Z,100118.50
2018-09-28T10:36:36.533Z,100110.66
2018-09-28T10:39:07.312Z,100097.97
2018-09-28T10:41:36.521Z,100084.50
2018-09-28T10:44:05.901Z,100078.86
2018-09-28T10:46:35.140Z,100070.48
2018-09-28T10:49:04.274Z,100065.91
2018-09-28T10:51:33.415Z,100059.86
2018-09-28T10:54:02.860Z,100054.88
2018-09-28T10:56:31.973Z,100046.19
2018-09-28T10:59:01.058Z,100039.16
2018-09-28T11:01:30.557Z,100034.06
2018-09-28T11:03:59.712Z,100032.42
2018-09-28T11:06:28.848Z,100022.85
2018-09-28T11:08:58.439Z,100005.23
2018-09-28T11:11:27.484Z,99999.88
2018-09-28T11:13:56.604Z,100000.59
2018-09-28T11:16:25.785Z,99998.91
2018-09-28T11:18:54.964Z,99991.72
2018-09-28T11:21:24.095Z,99989.19
2018-09-28T11:23:53.603Z,99981.62
2018-09-28T11:26:22.835Z,99982.72
2018-09-28T11:28:51.948Z,99972.61
2018-09-28T11:31:21.285Z,99964.82
2018-09-28T11:33:50.486Z,99957.84
2018-09-28T11:36:19.747Z,99954.58
2018-09-28T11:38:48.859Z,99955.79
2018-09-28T11:41:17.993Z,99950.95
2018-09-28T11:43:47.369Z,99954.97
2018-09-28T11:46:16.499Z,99942.89
2018-09-28T11:48:45.697Z,99935.80
2018-09-28T11:51:14.841Z,99932.86
2018-09-28T11:53:44.599Z,99932.86
2018-09-28T11:56:13.764Z,99927.77
2018-09-28T11:58:42.877Z,99917.84
2018-09-28T12:01:12.257Z,99913.56
2018-09-28T12:03:41.240Z,99912.85
2018-09-28T12:06:10.323Z,99910.92
2018-09-28T12:08:39.541Z,99906.59
2018-09-28T12:11:08.486Z,99903.28
2018-09-28T12:13:37.289Z,99895.50
2018-09-28T12:16:06.117Z,99900.94
2018-09-28T12:18:35.038Z,99892.25
2018-09-28T12:21:03.932Z,99889.16
2018-09-28T12:23:33.156Z,99883.53
2018-09-28T12:26:02.384Z,99883.96
2018-09-28T12:28:31.504Z,99880.91
2018-09-28T12:31:00.749Z,99878.89
2018-09-28T12:33:29.674Z,99875.00
2018-09-28T12:35:58.654Z,99868.91
2018-09-28T12:38:27.656Z,99863.37
2018-09-28T12:40:56.546Z,99845.16
2018-09-28T12:43:25.429Z,99851.06
2018-09-28T12:45:54.369Z,99852.34
2018-09-28T12:48:23.275Z,99846.55
2018-09-28T12:50:51.993Z,99839.80
2018-09-28T12:53:20.922Z,99835.47
2018-09-28T12:55:50.686Z,99829.95
2018-09-28T12:58:19.533Z,99821.30
2018-09-28T13:00:48.746Z,99834.48
2018-09-28T13:03:17.542Z,99813.22
2018-09-28T13:05:46.383Z,99811.17
2018-09-28T13:08:15.359Z,99811.48
2018-09-28T13:10:44.715Z,99796.81
2018-09-28T13:13:13.675Z,99798.78
2018-09-28T13:15:42.645Z,99790.31
2018-09-28T13:18:11.578Z,99787.39
2018-09-28T13:20:40.458Z,99789.27
2018-09-28T13:23:09.577Z,99789.91
2018-09-28T13:25:38.511Z,99785.66
2018-09-28T13:28:07.512Z,99781.86
2018-09-28T13:30:36.388Z,99773.38
2018-09-28T13:33:05.377Z,99778.93
2018-09-28T13:35:34.221Z,99774.48
2018-09-28T13:38:03.320Z,99780.37
2018-09-28T13:40:32.195Z,99770.63
2018-09-28T13:43:01.389Z,99765.13
2018-09-28T13:45:30.659Z,99762.66
2018-09-28T13:47:59.618Z,99757.22
2018-09-28T13:50:28.594Z,99759.27
2018-09-28T13:52:58.189Z,99759.20
2018-09-28T13:55:27.257Z,99756.23
2018-09-28T14:04:40.820Z,99734.61
2018-09-28T14:07:09.894Z,99737.46
2018-09-28T14:09:38.686Z,99732.95
2018-09-28T14:12:08.091Z,99734.42
2018-09-28T14:14:37.183Z,99715.98
2018-09-28T14:17:06.011Z,99711.78
2018-09-28T14:19:34.976Z,99713.12
2018-09-28T14:22:03.938Z,99711.83
2018-09-28T14:24:32.937Z,99714.73
2018-09-28T14:27:02.015Z,99723.13
2018-09-28T14:29:30.864Z,99717.41
2018-09-28T14:31:59.884Z,99705.81
2018-09-28T14:34:29.190Z,99695.27
2018-09-28T14:36:58.060Z,99702.28
2018-09-28T14:39:26.931Z,99704.52
2018-09-28T14:41:56.385Z,99702.61
2018-09-28T14:44:25.483Z,99701.45
2018-09-28T14:46:54.355Z,99698.09
2018-09-28T14:49:23.659Z,99694.09
2018-09-28T14:51:52.493Z,99685.20
2018-09-28T14:54:21.489Z,99684.75
2018-09-28T14:56:50.637Z,99677.59
2018-09-28T14:59:19.543Z,99675.44
2018-09-28T15:01:48.538Z,99678.47
2018-09-28T15:04:17.604Z,99681.72
2018-09-28T15:06:46.660Z,99682.75
2018-09-28T15:09:15.592Z,99669.16
2018-09-28T15:11:44.828Z,99667.94
2018-09-28T15:14:13.743Z,99665.11
2018-09-28T15:16:42.827Z,99651.47
2018-09-28T15:19:11.657Z,99664.48
2018-09-28T15:21:40.441Z,99667.44
2018-09-28T15:24:09.352Z,99664.48
2018-09-28T15:26:38.233Z,99667.09
2018-09-28T15:29:07.160Z,99667.54
2018-09-28T15:31:36.213Z,99663.20
2018-09-28T15:34:05.387Z,99664.64
2018-09-28T15:36:38.289Z,99662.41
2018-09-28T15:39:10.682Z,99648.37
2018-09-28T15:41:39.819Z,99649.46
2018-09-28T15:44:09.101Z,99650.41
2018-09-28T15:46:38.282Z,99652.63
2018-09-28T15:49:07.131Z,99651.78
2018-09-28T15:51:36.205Z,99652.27
2018-09-28T15:54:05.536Z,99649.73
2018-09-28T15:56:34.558Z,99651.23
2018-09-28T15:59:03.706Z,99651.42
2018-09-28T16:03:02.351Z,99644.27
2018-09-28T16:05:31.477Z,99645.97
2018-09-28T16:08:00.485Z,99646.02
2018-09-28T16:10:29.452Z,99643.61
2018-09-28T16:12:58.304Z,99646.52
2018-09-28T16:15:27.399Z,99645.67
2018-09-28T16:17:56.753Z,99645.98
2018-09-28T16:20:25.824Z,99647.48
2018-09-28T16:22:54.640Z,99642.89
2018-09-28T16:25:23.768Z,99639.70
2018-09-28T16:27:52.886Z,99628.91
2018-09-28T16:30:21.718Z,99629.89
2018-09-28T16:32:50.799Z,99629.89
2018-09-28T16:35:19.767Z,99626.51
2018-09-28T16:37:48.710Z,99630.88
2018-09-28T16:40:18.039Z,99635.37
2018-09-28T16:42:47.200Z,99632.38
2018-09-28T16:45:16.302Z,99635.95
2018-09-28T16:47:45.386Z,99636.59
2018-09-28T16:50:14.339Z,99639.04
2018-09-28T16:52:43.507Z,99645.72
2018-09-28T16:55:12.759Z,99647.55
2018-09-28T16:57:42.063Z,99652.19
2018-09-28T17:00:11.142Z,99653.36
2018-09-28T17:02:40.545Z,99647.53
2018-09-28T17:05:09.495Z,99655.90
2018-09-28T17:07:38.602Z,99662.22
2018-09-28T17:10:07.729Z,99658.56
2018-09-28T17:12:36.756Z,99671.03
2018-09-28T17:15:06.033Z,99669.83
2018-09-28T17:17:35.285Z,99670.28
2018-09-28T17:20:04.387Z,99673.41
2018-09-28T17:22:33.419Z,99672.92
2018-09-28T17:25:02.550Z,99674.50
2018-09-28T17:27:31.609Z,99674.34
2018-09-28T17:30:00.637Z,99680.05
2018-09-28T17:32:29.735Z,99674.95
2018-09-28T17:34:58.889Z,99678.67
2018-09-28T17:37:28.093Z,99678.42
2018-09-28T17:39:57.373Z,99671.16
2018-09-28T17:42:26.350Z,99668.13
2018-09-28T17:44:55.233Z,99662.30
2018-09-28T17:47:24.644Z,99670.91
2018-09-28T17:49:53.702Z,99670.42
2018-09-28T17:52:22.593Z,99668.72
2018-09-28T17:54:51.537Z,99671.48
2018-09-28T17:57:20.489Z,99669.58
2018-09-28T17:59:49.342Z,99669.87
2018-09-28T18:02:18.576Z,99670.95
2018-09-28T18:04:47.560Z,99672.52
2018-09-28T18:07:16.595Z,99672.61
2018-09-28T18:09:45.520Z,99669.58
2018-09-28T18:12:14.460Z,99669.09
2018-09-28T18:14:43.437Z,99664.13
2018-09-28T18:17:12.511Z,99665.26
2018-09-28T18:19:41.392Z,99670.23
2018-09-28T18:22:10.186Z,99669.09
2018-09-28T18:24:39.384Z,99674.30
2018-09-28T18:27:08.660Z,99670.99
2018-09-28T18:29:37.525Z,99676.41
2018-09-28T18:32:06.863Z,99672.48
2018-09-28T18:34:35.789Z,99669.09
2018-09-28T18:37:04.627Z,99671.63
2018-09-28T18:39:33.940Z,99670.30
2018-09-28T18:42:02.749Z,99672.37
2018-09-28T18:44:31.854Z,99674.55
2018-09-28T18:47:01.285Z,99668.72
2018-09-28T18:49:30.508Z,99670.42
2018-09-28T18:51:59.960Z,99670.42
2018-09-28T18:54:29.059Z,99671.75
2018-09-28T18:56:58.145Z,99671.67
2018-09-28T18:59:27.069Z,99665.37
2018-09-28T19:01:56.371Z,99666.34
2018-09-28T19:04:25.414Z,99672.23
2018-09-28T19:06:54.438Z,99674.66
2018-09-28T19:09:23.880Z,99684.42
2018-09-28T19:11:53.170Z,99681.83
2018-09-28T19:14:22.304Z,99684.31
2018-09-28T19:16:51.617Z,99692.89
2018-09-28T19:19:20.848Z,99694.42
2018-09-28T19:21:50.123Z,99692.10
2018-09-28T19:24:19.500Z,99687.73
2018-09-28T19:26:48.456Z,99692.16
2018-09-28T19:29:17.661Z,99684.45
2018-09-28T19:31:46.959Z,99695.96
2018-09-28T19:34:16.148Z,99689.95
2018-09-28T19:36:45.390Z,99686.16
2018-09-28T19:39:14.885Z,99681.91
2018-09-28T19:41:44.089Z,99684.80
2018-09-28T19:44:13.044Z,99685.54
2018-09-28T19:46:42.479Z,99687.72
2018-09-28T19:49:11.563Z,99677.52
2018-09-28T19:51:40.561Z,99679.16
2018-09-28T19:54:10.092Z,99681.09
2018-09-28T19:56:39.252Z,99679.02
2018-09-28T19:59:08.397Z,99682.84
2018-09-28T20:01:37.787Z,99678.94
2018-09-28T20:04:06.881Z,99684.64
2018-09-28T20:06:35.945Z,99685.46
2018-09-28T20:09:07.527Z,99689.02
2018-09-28T20:11:36.813Z,99689.91
2018-09-28T20:14:05.726Z,99691.69
2018-09-28T20:16:34.851Z,99691.35
2018-09-28T20:19:04.056Z,99697.55
2018-09-28T20:21:33.250Z,99701.66
2018-09-28T20:24:02.849Z,99702.80
2018-09-28T20:26:32.275Z,99698.15
2018-09-28T20:29:01.452Z,99691.46
2018-09-28T20:31:30.725Z,99692.09
2018-09-28T20:34:00.257Z,99696.27
2018-09-28T20:36:29.562Z,99690.58
2018-09-28T20:38:58.923Z,99689.28
2018-09-28T20:41:28.758Z,99683.85
2018-09-28T20:43:57.849Z,99687.58
2018-09-28T20:46:27.862Z,99688.91
2018-09-28T20:48:57.313Z,99683.63
2018-09-28T20:51:26.827Z,99687.98
2018-09-28T20:53:56.160Z,99688.84
2018-09-28T20:56:25.371Z,99690.98
2018-09-28T20:58:54.765Z,99686.17
2018-09-28T21:01:23.962Z,99688.20
2018-09-28T21:03:53.989Z,99686.16
2018-09-28T21:06:23.283Z,99688.36
2018-09-28T21:08:52.558Z,99696.02
2018-09-28T21:11:21.823Z,99688.66
2018-09-28T21:13:51.137Z,99695.11
2018-09-28T21:16:20.308Z,99689.54
2018-09-28T21:18:49.757Z,99691.88
2018-09-28T21:21:18.827Z,99677.34
2018-09-28T21:23:47.840Z,99681.92
2018-09-28T21:26:17.418Z,99688.30
2018-09-28T21:28:46.799Z,99690.31
2018-09-28T21:31:16.064Z,99685.86
2018-09-28T21:33:45.647Z,99685.07
2018-09-28T21:36:15.061Z,99681.78
2018-09-28T21:38:44.242Z,99679.70
2018-09-28T21:41:13.645Z,99678.69
2018-09-28T21:43:42.694Z,99674.23
2018-09-28T21:46:12.117Z,99665.72
2018-09-28T21:48:41.658Z,99668.17
2018-09-28T21:51:11.008Z,99668.47
2018-09-28T21:53:40.288Z,99667.72
2018-09-28T21:56:10.024Z,99663.06
2018-09-28T21:58:39.392Z,99666.67
2018-09-28T22:01:08.346Z,99671.30
2018-09-28T22:03:37.398Z,99678.95
2018-09-28T22:06:06.799Z,99677.83
2018-09-28T22:08:36.004Z,99671.26
2018-09-28T22:11:05.005Z,99677.25
2018-09-28T22:13:34.352Z,99673.84
2018-09-28T22:16:03.718Z,99675.34
2018-09-28T22:18:34.831Z,99672.52
2018-09-28T22:21:04.097Z,99668.70
2018-09-28T22:23:33.236Z,99669.61
2018-09-28T22:26:02.879Z,99660.89
2018-09-28T22:28:31.989Z,99669.29
2018-09-28T22:31:01.105Z,99658.19
2018-09-28T22:33:30.577Z,99656.48
2018-09-28T22:35:59.519Z,99662.48
2018-09-28T22:38:29.081Z,99654.25
2018-09-28T22:40:58.676Z,99649.59
2018-09-28T22:43:27.576Z,99649.48
2018-09-28T22:45:56.801Z,99641.52
2018-09-28T22:48:26.063Z,99646.36
2018-09-28T22:50:55.222Z,99643.70
2018-09-28T22:53:24.287Z,99650.06
2018-09-28T22:55:53.740Z,99648.68
2018-09-28T22:58:22.968Z,99651.24
2018-09-28T23:00:52.368Z,99647.38
2018-09-28T23:03:21.627Z,99643.05
2018-09-28T23:05:51.175Z,99647.89
2018-09-28T23:15:06.230Z,99651.63
2018-09-28T23:17:35.358Z,99650.77
2018-09-28T23:20:04.737Z,99651.70
2018-09-28T23:22:34.579Z,99646.78
2018-09-28T23:25:04.665Z,99645.74
2018-09-28T23:27:33.981Z,99640.52
2018-09-28T23:30:03.292Z,99639.22
2018-09-28T23:32:32.965Z,99643.91
2018-09-28T23:35:01.994Z,99641.44
2018-09-28T23:37:31.559Z,99645.01
2018-09-28T23:40:00.708Z,99637.50
2018-09-28T23:42:29.869Z,99635.78
2018-09-28T23:44:59.517Z,99633.60
2018-09-28T23:47:28.702Z,99635.66
2018-09-28T23:49:57.793Z,99638.39
2018-09-28T23:52:27.533Z,99641.23
2018-09-28T23:54:56.693Z,99638.77
2018-09-28T23:57:26.019Z,99631.45
2018-09-28T23:59:55.724Z,99636.43
